sensor_id;sensor_type;location;lat;lon;timestamp;pressure;altitude;pressure_sealevel;temperature;humidity
6835;BME280;3455;42.150;24.734;2023-02-18T00:01:57;66489.72;;;11.93;35.43
6835;BME280;3455;42.150;24.734;2023-02-18T00:04:25;66506.47;;;12.08;34.96
6835;BME280;3455;42.150;24.734;2023-02-18T00:06:52;66468.13;;;11.87;35.38
6835;BME280;3455;42.150;24.734;2023-02-18T00:09:19;66489.00;;;11.88;35.43
6835;BME280;3455;42.150;24.734;2023-02-18T00:11:45;66644.38;;;11.95;35.74
6835;BME280;3455;42.150;24.734;2023-02-18T00:14:14;66521.56;;;12.03;35.45
6835;BME280;3455;42.150;24.734;2023-02-18T00:16:41;66494.53;;;11.50;36.27
6835;BME280;3455;42.150;24.734;2023-02-18T00:19:11;66453.47;;;11.65;35.99
6835;BME280;3455;42.150;24.734;2023-02-18T00:21:39;66446.22;;;11.23;37.19
6835;BME280;3455;42.150;24.734;2023-02-18T00:24:07;66438.47;;;11.07;37.09
6835;BME280;3455;42.150;24.734;2023-02-18T00:26:34;66432.69;;;11.02;37.18
6835;BME280;3455;42.150;24.734;2023-02-18T00:29:01;66459.69;;;11.33;36.33
6835;BME280;3455;42.150;24.734;2023-02-18T00:31:30;66473.75;;;11.32;36.64
6835;BME280;3455;42.150;24.734;2023-02-18T00:33:58;66430.88;;;11.18;37.05
6835;BME280;3455;42.150;24.734;2023-02-18T00:36:25;66563.91;;;11.82;35.33
6835;BME280;3455;42.150;24.734;2023-02-18T00:38:57;66494.09;;;11.88;35.27
6835;BME280;3455;42.150;24.734;2023-02-18T00:41:25;66492.25;;;11.82;35.38
6835;BME280;3455;42.150;24.734;2023-02-18T00:43:53;66433.41;;;11.29;36.53
6835;BME280;3455;42.150;24.734;2023-02-18T00:46:20;66489.25;;;11.75;35.88
6835;BME280;3455;42.150;24.734;2023-02-18T00:48:47;66478.50;;;11.52;36.50
6835;BME280;3455;42.150;24.734;2023-02-18T00:51:14;66399.50;;;10.93;36.74
6835;BME280;3455;42.150;24.734;2023-02-18T00:53:41;66439.03;;;11.07;37.34
6835;BME280;3455;42.150;24.734;2023-02-18T00:56:09;66434.78;;;11.06;37.15
6835;BME280;3455;42.150;24.734;2023-02-18T00:58:36;66444.00;;;11.25;36.64
6835;BME280;3455;42.150;24.734;2023-02-18T01:01:04;66425.56;;;11.20;37.12
6835;BME280;3455;42.150;24.734;2023-02-18T01:03:31;66390.63;;;10.87;37.22
6835;BME280;3455;42.150;24.734;2023-02-18T01:05:57;66371.16;;;10.74;37.76
6835;BME280;3455;42.150;24.734;2023-02-18T01:08:24;66404.44;;;10.77;37.61
6835;BME280;3455;42.150;24.734;2023-02-18T01:10:53;66388.19;;;10.80;37.55
6835;BME280;3455;42.150;24.734;2023-02-18T01:13:22;66396.50;;;10.85;37.57
6835;BME280;3455;42.150;24.734;2023-02-18T01:15:49;66392.31;;;10.66;37.97
6835;BME280;3455;42.150;24.734;2023-02-18T01:18:16;66385.53;;;10.76;37.80
6835;BME280;3455;42.150;24.734;2023-02-18T01:20:44;66394.44;;;10.81;37.65
6835;BME280;3455;42.150;24.734;2023-02-18T01:23:12;66367.69;;;10.71;38.10
6835;BME280;3455;42.150;24.734;2023-02-18T01:25:40;66334.63;;;10.55;38.40
6835;BME280;3455;42.150;24.734;2023-02-18T01:28:08;66347.63;;;10.58;38.31
6835;BME280;3455;42.150;24.734;2023-02-18T01:30:37;66395.28;;;10.50;38.44
6835;BME280;3455;42.150;24.734;2023-02-18T01:33:03;66321.81;;;10.39;38.63
6835;BME280;3455;42.150;24.734;2023-02-18T01:35:30;66308.25;;;9.96;39.36
6835;BME280;3455;42.150;24.734;2023-02-18T01:37:57;66310.59;;;10.09;39.65
6835;BME280;3455;42.150;24.734;2023-02-18T01:40:27;66339.25;;;10.19;39.36
6835;BME280;3455;42.150;24.734;2023-02-18T01:42:54;66366.94;;;10.43;38.57
6835;BME280;3455;42.150;24.734;2023-02-18T01:45:57;66357.50;;;10.48;38.45
6835;BME280;3455;42.150;24.734;2023-02-18T01:48:27;66373.28;;;10.49;38.53
6835;BME280;3455;42.150;24.734;2023-02-18T01:50:58;66332.19;;;10.37;38.76
6835;BME280;3455;42.150;24.734;2023-02-18T01:53:30;66331.06;;;10.07;39.75
6835;BME280;3455;42.150;24.734;2023-02-18T01:56:00;66315.06;;;9.97;39.59
6835;BME280;3455;42.150;24.734;2023-02-18T01:58:29;66277.97;;;9.66;39.96
6835;BME280;3455;42.150;24.734;2023-02-18T02:01:00;66321.25;;;9.87;39.91
6835;BME280;3455;42.150;24.734;2023-02-18T02:03:27;66318.06;;;10.04;39.20
6835;BME280;3455;42.150;24.734;2023-02-18T02:05:53;66312.00;;;10.19;38.97
6835;BME280;3455;42.150;24.734;2023-02-18T02:08:20;66341.34;;;10.23;38.90
6835;BME280;3455;42.150;24.734;2023-02-18T02:10:59;66340.72;;;10.51;38.16
6835;BME280;3455;42.150;24.734;2023-02-18T02:13:36;66347.03;;;10.35;38.14
6835;BME280;3455;42.150;24.734;2023-02-18T02:16:11;66370.16;;;10.37;38.10
6835;BME280;3455;42.150;24.734;2023-02-18T02:18:50;66367.41;;;10.39;38.00
6835;BME280;3455;42.150;24.734;2023-02-18T02:21:38;66312.75;;;9.95;38.23
6835;BME280;3455;42.150;24.734;2023-02-18T02:24:22;66325.88;;;10.02;38.66
6835;BME280;3455;42.150;24.734;2023-02-18T02:27:13;66337.41;;;10.12;38.75
6835;BME280;3455;42.150;24.734;2023-02-18T02:30:22;66321.41;;;10.03;38.54
6835;BME280;3455;42.150;24.734;2023-02-18T02:33:16;66312.22;;;10.17;38.62
6835;BME280;3455;42.150;24.734;2023-02-18T02:35:53;66343.63;;;10.13;38.79
6835;BME280;3455;42.150;24.734;2023-02-18T02:38:29;66272.22;;;9.72;39.37
6835;BME280;3455;42.150;24.734;2023-02-18T02:41:09;66300.34;;;9.93;39.10
6835;BME280;3455;42.150;24.734;2023-02-18T02:43:46;66310.25;;;10.06;38.88
6835;BME280;3455;42.150;24.734;2023-02-18T02:46:20;66338.31;;;10.04;39.35
6835;BME280;3455;42.150;24.734;2023-02-18T02:48:55;66265.50;;;9.53;40.08
6835;BME280;3455;42.150;24.734;2023-02-18T02:51:27;66283.06;;;9.78;39.55
6835;BME280;3455;42.150;24.734;2023-02-18T02:54:08;66295.69;;;9.66;39.79
6835;BME280;3455;42.150;24.734;2023-02-18T02:56:36;66250.53;;;9.40;39.90
6835;BME280;3455;42.150;24.734;2023-02-18T02:59:06;66230.66;;;9.42;39.68
6835;BME280;3455;42.150;24.734;2023-02-18T03:01:41;66228.50;;;9.56;39.75
6835;BME280;3455;42.150;24.734;2023-02-18T03:10:29;66327.34;;;9.83;39.31
6835;BME280;3455;42.150;24.734;2023-02-18T03:13:06;66284.41;;;9.65;39.55
6835;BME280;3455;42.150;24.734;2023-02-18T03:15:39;66292.47;;;9.72;39.36
6835;BME280;3455;42.150;24.734;2023-02-18T03:18:15;66297.28;;;9.63;39.53
6835;BME280;3455;42.150;24.734;2023-02-18T03:20:48;66307.69;;;9.95;39.11
6835;BME280;3455;42.150;24.734;2023-02-18T03:23:22;66335.00;;;10.06;38.75
6835;BME280;3455;42.150;24.734;2023-02-18T03:25:51;66304.69;;;9.88;38.87
6835;BME280;3455;42.150;24.734;2023-02-18T03:28:20;66348.66;;;9.91;39.06
6835;BME280;3455;42.150;24.734;2023-02-18T03:30:50;66327.03;;;10.03;38.77
6835;BME280;3455;42.150;24.734;2023-02-18T03:33:23;66304.22;;;9.92;39.22
6835;BME280;3455;42.150;24.734;2023-02-18T03:35:53;66304.22;;;9.92;38.99
6835;BME280;3455;42.150;24.734;2023-02-18T03:38:24;66343.38;;;10.04;38.85
6835;BME280;3455;42.150;24.734;2023-02-18T03:40:53;66321.00;;;9.78;39.18
6835;BME280;3455;42.150;24.734;2023-02-18T03:43:20;66278.81;;;9.47;39.66
6835;BME280;3455;42.150;24.734;2023-02-18T03:45:46;66344.28;;;9.96;38.74
6835;BME280;3455;42.150;24.734;2023-02-18T03:48:13;66305.19;;;10.06;38.68
6835;BME280;3455;42.150;24.734;2023-02-18T03:50:40;66339.38;;;10.23;38.18
6835;BME280;3455;42.150;24.734;2023-02-18T03:53:06;66332.34;;;10.12;38.30
6835;BME280;3455;42.150;24.734;2023-02-18T03:55:35;66334.66;;;10.14;38.26
6835;BME280;3455;42.150;24.734;2023-02-18T03:58:01;66367.66;;;10.48;37.95
6835;BME280;3455;42.150;24.734;2023-02-18T04:00:28;66337.25;;;10.48;37.50
6835;BME280;3455;42.150;24.734;2023-02-18T04:02:55;66394.81;;;10.55;37.36
6835;BME280;3455;42.150;24.734;2023-02-18T04:05:21;66362.78;;;10.35;38.22
6835;BME280;3455;42.150;24.734;2023-02-18T04:07:48;66357.41;;;10.44;37.87
6835;BME280;3455;42.150;24.734;2023-02-18T04:10:15;66315.53;;;10.04;38.49
6835;BME280;3455;42.150;24.734;2023-02-18T04:12:43;66334.91;;;10.24;38.35
6835;BME280;3455;42.150;24.734;2023-02-18T04:15:10;66337.16;;;10.03;38.66
6835;BME280;3455;42.150;24.734;2023-02-18T04:17:38;66302.28;;;10.04;38.50
6835;BME280;3455;42.150;24.734;2023-02-18T04:20:06;66324.28;;;10.17;38.72
6835;BME280;3455;42.150;24.734;2023-02-18T04:22:33;66269.19;;;9.54;39.84
6835;BME280;3455;42.150;24.734;2023-02-18T04:24:59;66286.59;;;9.63;39.77
6835;BME280;3455;42.150;24.734;2023-02-18T04:27:26;66314.09;;;9.83;39.07
6835;BME280;3455;42.150;24.734;2023-02-18T04:29:54;66349.13;;;10.09;39.19
6835;BME280;3455;42.150;24.734;2023-02-18T04:32:21;66296.03;;;9.80;39.32
6835;BME280;3455;42.150;24.734;2023-02-18T04:34:47;66330.69;;;9.93;39.27
6835;BME280;3455;42.150;24.734;2023-02-18T04:37:14;66321.06;;;10.00;39.04
6835;BME280;3455;42.150;24.734;2023-02-18T04:39:41;66336.84;;;10.12;38.67
6835;BME280;3455;42.150;24.734;2023-02-18T04:42:07;66313.69;;;10.09;38.65
6835;BME280;3455;42.150;24.734;2023-02-18T04:44:34;66303.69;;;10.14;38.38
6835;BME280;3455;42.150;24.734;2023-02-18T04:47:03;66292.69;;;9.70;38.88
6835;BME280;3455;42.150;24.734;2023-02-18T04:49:31;66345.47;;;10.20;38.22
6835;BME280;3455;42.150;24.734;2023-02-18T04:51:57;66388.81;;;10.40;37.49
6835;BME280;3455;42.150;24.734;2023-02-18T04:54:24;66443.25;;;10.75;36.68
6835;BME280;3455;42.150;24.734;2023-02-18T04:56:51;66374.69;;;10.48;37.16
6835;BME280;3455;42.150;24.734;2023-02-18T04:59:18;66408.38;;;10.98;36.68
6835;BME280;3455;42.150;24.734;2023-02-18T05:01:44;66411.69;;;10.74;36.92
6835;BME280;3455;42.150;24.734;2023-02-18T05:04:13;66416.56;;;10.99;36.47
6835;BME280;3455;42.150;24.734;2023-02-18T05:06:39;66468.22;;;11.47;35.63
6835;BME280;3455;42.150;24.734;2023-02-18T05:09:07;66501.22;;;11.58;34.88
6835;BME280;3455;42.150;24.734;2023-02-18T05:11:34;66493.03;;;11.46;35.06
6835;BME280;3455;42.150;24.734;2023-02-18T05:14:01;66439.16;;;11.12;35.48
6835;BME280;3455;42.150;24.734;2023-02-18T05:16:28;66497.75;;;11.44;34.96
6835;BME280;3455;42.150;24.734;2023-02-18T05:18:55;66556.19;;;11.89;34.61
6835;BME280;3455;42.150;24.734;2023-02-18T05:21:23;66544.44;;;12.15;34.03
6835;BME280;3455;42.150;24.734;2023-02-18T05:23:50;66493.78;;;11.97;34.69
6835;BME280;3455;42.150;24.734;2023-02-18T05:26:17;66555.06;;;12.11;34.10
6835;BME280;3455;42.150;24.734;2023-02-18T05:28:43;66524.44;;;11.83;34.20
6835;BME280;3455;42.150;24.734;2023-02-18T05:31:10;66512.59;;;12.04;34.26
6835;BME280;3455;42.150;24.734;2023-02-18T05:33:37;66521.38;;;12.05;34.17
6835;BME280;3455;42.150;24.734;2023-02-18T05:36:04;66529.66;;;12.11;34.29
6835;BME280;3455;42.150;24.734;2023-02-18T05:38:32;66548.84;;;12.10;34.26
6835;BME280;3455;42.150;24.734;2023-02-18T05:40:59;66523.91;;;11.94;34.33
6835;BME280;3455;42.150;24.734;2023-02-18T05:43:25;66562.56;;;12.17;33.84
6835;BME280;3455;42.150;24.734;2023-02-18T05:45:52;66568.00;;;12.42;33.58
6835;BME280;3455;42.150;24.734;2023-02-18T05:48:19;66607.28;;;12.66;33.73
6835;BME280;3455;42.150;24.734;2023-02-18T05:50:45;66585.09;;;12.60;33.28
6835;BME280;3455;42.150;24.734;2023-02-18T05:53:12;66610.38;;;12.89;33.29
6835;BME280;3455;42.150;24.734;2023-02-18T05:55:40;66617.22;;;12.79;33.12
6835;BME280;3455;42.150;24.734;2023-02-18T05:58:07;66580.47;;;12.56;32.81
6835;BME280;3455;42.150;24.734;2023-02-18T06:00:34;66606.56;;;12.83;32.74
6835;BME280;3455;42.150;24.734;2023-02-18T06:03:00;66607.28;;;12.89;32.77
6835;BME280;3455;42.150;24.734;2023-02-18T06:05:27;66606.91;;;12.75;32.81
6835;BME280;3455;42.150;24.734;2023-02-18T06:07:54;66633.25;;;13.12;32.52
6835;BME280;3455;42.150;24.734;2023-02-18T06:10:20;66632.91;;;13.20;32.64
6835;BME280;3455;42.150;24.734;2023-02-18T06:12:48;66598.47;;;12.99;32.27
6835;BME280;3455;42.150;24.734;2023-02-18T06:15:15;66665.03;;;13.51;31.74
6835;BME280;3455;42.150;24.734;2023-02-18T06:17:42;66665.53;;;13.36;31.43
6835;BME280;3455;42.150;24.734;2023-02-18T06:20:09;66694.66;;;13.48;31.41
6835;BME280;3455;42.150;24.734;2023-02-18T06:22:36;66651.88;;;13.33;31.83
6835;BME280;3455;42.150;24.734;2023-02-18T06:25:03;66699.25;;;13.75;31.47
6835;BME280;3455;42.150;24.734;2023-02-18T06:27:30;66770.50;;;14.20;30.47
6835;BME280;3455;42.150;24.734;2023-02-18T06:29:58;66753.03;;;14.23;30.64
6835;BME280;3455;42.150;24.734;2023-02-18T06:32:25;66752.50;;;13.99;30.54
6835;BME280;3455;42.150;24.734;2023-02-18T06:34:52;66788.75;;;14.50;29.81
6835;BME280;3455;42.150;24.734;2023-02-18T06:37:19;66807.03;;;14.79;29.42
6835;BME280;3455;42.150;24.734;2023-02-18T06:39:45;66761.47;;;14.71;28.94
6835;BME280;3455;42.150;24.734;2023-02-18T06:42:12;66779.72;;;14.62;29.32
6835;BME280;3455;42.150;24.734;2023-02-18T06:44:39;66778.75;;;14.70;29.43
6835;BME280;3455;42.150;24.734;2023-02-18T06:47:07;66903.88;;;15.74;27.75
6835;BME280;3455;42.150;24.734;2023-02-18T06:49:34;67074.41;;;17.07;26.19
6835;BME280;3455;42.150;24.734;2023-02-18T06:52:01;67036.63;;;16.97;26.17
6835;BME280;3455;42.150;24.734;2023-02-18T06:54:28;67129.63;;;17.49;25.49
6835;BME280;3455;42.150;24.734;2023-02-18T06:56:54;67185.75;;;18.33;24.64
6835;BME280;3455;42.150;24.734;2023-02-18T06:59:21;67191.88;;;18.41;24.17
6835;BME280;3455;42.150;24.734;2023-02-18T07:01:48;67219.81;;;18.54;24.36
6835;BME280;3455;42.150;24.734;2023-02-18T07:04:16;67385.88;;;19.69;22.99
6835;BME280;3455;42.150;24.734;2023-02-18T07:06:43;67216.94;;;18.83;23.41
6835;BME280;3455;42.150;24.734;2023-02-18T07:09:09;67268.59;;;18.97;23.54
6835;BME280;3455;42.150;24.734;2023-02-18T07:11:36;67444.28;;;20.34;22.43
6835;BME280;3455;42.150;24.734;2023-02-18T07:14:03;67527.47;;;21.08;22.03
6835;BME280;3455;42.150;24.734;2023-02-18T07:16:30;67691.19;;;22.25;20.78
6835;BME280;3455;42.150;24.734;2023-02-18T07:18:56;67643.41;;;21.99;20.64
6835;BME280;3455;42.150;24.734;2023-02-18T07:21:24;67616.16;;;22.00;20.84
6835;BME280;3455;42.150;24.734;2023-02-18T07:23:51;67686.94;;;22.12;20.87
6835;BME280;3455;42.150;24.734;2023-02-18T07:26:18;67669.69;;;22.42;20.35
6835;BME280;3455;42.150;24.734;2023-02-18T07:28:45;67731.78;;;22.83;20.28
6835;BME280;3455;42.150;24.734;2023-02-18T07:31:11;67790.28;;;23.12;19.34
6835;BME280;3455;42.150;24.734;2023-02-18T07:33:38;67645.56;;;22.07;20.02
6835;BME280;3455;42.150;24.734;2023-02-18T07:36:06;67629.31;;;22.13;20.14
6835;BME280;3455;42.150;24.734;2023-02-18T07:38:34;67542.56;;;21.53;20.83
6835;BME280;3455;42.150;24.734;2023-02-18T07:41:01;67573.94;;;21.28;20.83
6835;BME280;3455;42.150;24.734;2023-02-18T07:43:28;67452.84;;;20.96;21.44
6835;BME280;3455;42.150;24.734;2023-02-18T07:45:54;67631.06;;;21.99;20.28
6835;BME280;3455;42.150;24.734;2023-02-18T07:48:21;67540.25;;;21.19;21.00
6835;BME280;3455;42.150;24.734;2023-02-18T07:50:48;67521.81;;;21.12;21.25
6835;BME280;3455;42.150;24.734;2023-02-18T07:53:15;67523.53;;;21.13;21.26
6835;BME280;3455;42.150;24.734;2023-02-18T07:55:43;67408.81;;;20.35;21.76
6835;BME280;3455;42.150;24.734;2023-02-18T07:58:17;67398.28;;;20.21;22.07
6835;BME280;3455;42.150;24.734;2023-02-18T08:00:45;67599.00;;;21.66;20.91
6835;BME280;3455;42.150;24.734;2023-02-18T08:03:14;67741.16;;;22.96;20.54
6835;BME280;3455;42.150;24.734;2023-02-18T08:05:41;67982.00;;;24.62;19.06
6835;BME280;3455;42.150;24.734;2023-02-18T08:08:11;68048.09;;;25.25;17.85
6835;BME280;3455;42.150;24.734;2023-02-18T08:10:38;68172.97;;;26.21;17.08
6835;BME280;3455;42.150;24.734;2023-02-18T08:13:06;68355.47;;;27.31;16.26
6835;BME280;3455;42.150;24.734;2023-02-18T08:15:33;68370.19;;;27.48;16.59
6835;BME280;3455;42.150;24.734;2023-02-18T08:18:00;68468.28;;;28.07;16.76
6835;BME280;3455;42.150;24.734;2023-02-18T08:20:26;68500.72;;;28.28;15.97
6835;BME280;3455;42.150;24.734;2023-02-18T08:22:53;68521.09;;;28.53;15.46
6835;BME280;3455;42.150;24.734;2023-02-18T08:25:20;68269.84;;;26.88;17.02
6835;BME280;3455;42.150;24.734;2023-02-18T08:27:47;68053.47;;;25.39;18.07
6835;BME280;3455;42.150;24.734;2023-02-18T08:30:15;67865.66;;;24.24;18.56
6835;BME280;3455;42.150;24.734;2023-02-18T08:32:42;67816.44;;;23.83;18.73
6835;BME280;3455;42.150;24.734;2023-02-18T08:35:09;67836.81;;;23.80;19.31
6835;BME280;3455;42.150;24.734;2023-02-18T08:37:36;68128.47;;;25.41;18.45
6835;BME280;3455;42.150;24.734;2023-02-18T08:40:04;68383.59;;;27.55;16.42
6835;BME280;3455;42.150;24.734;2023-02-18T08:42:31;68251.38;;;26.90;17.08
6835;BME280;3455;42.150;24.734;2023-02-18T08:44:58;68310.81;;;27.24;17.10
6835;BME280;3455;42.150;24.734;2023-02-18T08:47:26;68224.19;;;26.48;16.95
6835;BME280;3455;42.150;24.734;2023-02-18T08:49:53;68489.38;;;28.25;15.90
6835;BME280;3455;42.150;24.734;2023-02-18T08:52:20;68259.84;;;26.74;16.29
6835;BME280;3455;42.150;24.734;2023-02-18T08:54:47;68014.63;;;25.07;18.07
6835;BME280;3455;42.150;24.734;2023-02-18T08:57:14;67810.41;;;23.48;19.25
6835;BME280;3455;42.150;24.734;2023-02-18T08:59:41;67635.41;;;22.53;20.40
6835;BME280;3455;42.150;24.734;2023-02-18T09:02:08;67762.16;;;23.15;20.84
6835;BME280;3455;42.150;24.734;2023-02-18T09:04:37;68035.44;;;25.28;18.28
6835;BME280;3455;42.150;24.734;2023-02-18T09:07:04;68162.09;;;25.89;17.66
6835;BME280;3455;42.150;24.734;2023-02-18T09:09:31;68365.09;;;27.57;16.20
6835;BME280;3455;42.150;24.734;2023-02-18T09:11:57;68276.88;;;26.94;16.58
6835;BME280;3455;42.150;24.734;2023-02-18T09:14:24;68170.38;;;26.00;17.70
6835;BME280;3455;42.150;24.734;2023-02-18T09:16:51;67916.19;;;24.34;18.89
6835;BME280;3455;42.150;24.734;2023-02-18T09:19:17;67958.53;;;24.37;18.41
6835;BME280;3455;42.150;24.734;2023-02-18T09:21:45;68069.44;;;25.46;18.02
6835;BME280;3455;42.150;24.734;2023-02-18T09:24:12;68410.44;;;27.70;17.10
6835;BME280;3455;42.150;24.734;2023-02-18T09:26:39;68302.63;;;27.16;16.89
6835;BME280;3455;42.150;24.734;2023-02-18T09:29:05;68562.50;;;28.71;15.58
6835;BME280;3455;42.150;24.734;2023-02-18T09:31:32;68462.59;;;28.15;15.47
6835;BME280;3455;42.150;24.734;2023-02-18T09:34:00;68345.34;;;27.29;16.08
6835;BME280;3455;42.150;24.734;2023-02-18T09:36:28;68210.16;;;26.35;17.44
6835;BME280;3455;42.150;24.734;2023-02-18T09:38:57;68251.31;;;26.85;16.30
6835;BME280;3455;42.150;24.734;2023-02-18T09:41:29;68102.94;;;25.89;17.44
6835;BME280;3455;42.150;24.734;2023-02-18T09:44:03;68018.72;;;25.27;18.01
6835;BME280;3455;42.150;24.734;2023-02-18T09:46:33;68117.38;;;26.09;17.06
6835;BME280;3455;42.150;24.734;2023-02-18T09:49:02;68520.38;;;28.89;15.54
6835;BME280;3455;42.150;24.734;2023-02-18T09:51:29;68664.72;;;29.65;15.40
6835;BME280;3455;42.150;24.734;2023-02-18T09:53:58;68742.13;;;30.23;14.81
6835;BME280;3455;42.150;24.734;2023-02-18T09:56:27;68450.00;;;28.27;15.63
6835;BME280;3455;42.150;24.734;2023-02-18T09:58:56;68571.00;;;29.01;15.66
6835;BME280;3455;42.150;24.734;2023-02-18T10:01:27;68882.66;;;31.21;14.37
6835;BME280;3455;42.150;24.734;2023-02-18T10:03:59;69011.00;;;31.62;13.94
6835;BME280;3455;42.150;24.734;2023-02-18T10:06:29;68519.88;;;28.72;15.80
6835;BME280;3455;42.150;24.734;2023-02-18T10:08:59;68503.75;;;28.56;15.22
6835;BME280;3455;42.150;24.734;2023-02-18T10:11:29;68424.50;;;28.03;15.92
6835;BME280;3455;42.150;24.734;2023-02-18T10:13:58;68842.06;;;30.85;13.75
6835;BME280;3455;42.150;24.734;2023-02-18T10:16:27;68719.81;;;30.04;13.86
6835;BME280;3455;42.150;24.734;2023-02-18T10:18:56;68799.41;;;30.46;13.93
6835;BME280;3455;42.150;24.734;2023-02-18T10:21:25;68774.56;;;30.15;13.91
6835;BME280;3455;42.150;24.734;2023-02-18T10:23:58;68548.81;;;28.91;14.72
6835;BME280;3455;42.150;24.734;2023-02-18T10:26:26;68674.63;;;29.69;14.21
6835;BME280;3455;42.150;24.734;2023-02-18T10:28:54;68580.53;;;28.78;14.11
6835;BME280;3455;42.150;24.734;2023-02-18T10:31:27;68565.66;;;28.92;14.61
6835;BME280;3455;42.150;24.734;2023-02-18T10:33:59;68549.72;;;29.15;14.71
6835;BME280;3455;42.150;24.734;2023-02-18T10:36:34;68529.53;;;28.79;15.21
6835;BME280;3455;42.150;24.734;2023-02-18T10:39:16;68553.22;;;29.18;14.48
6835;BME280;3455;42.150;24.734;2023-02-18T10:41:53;68758.72;;;30.01;13.78
6835;BME280;3455;42.150;24.734;2023-02-18T10:44:29;68660.00;;;29.61;13.47
6835;BME280;3455;42.150;24.734;2023-02-18T10:47:13;68630.00;;;29.30;14.29
6835;BME280;3455;42.150;24.734;2023-02-18T10:49:58;68605.56;;;29.27;14.19
6835;BME280;3455;42.150;24.734;2023-02-18T10:52:27;68462.03;;;28.15;15.00
6835;BME280;3455;42.150;24.734;2023-02-18T10:55:00;68588.91;;;29.15;14.49
6835;BME280;3455;42.150;24.734;2023-02-18T10:57:29;68762.66;;;30.37;13.73
6835;BME280;3455;42.150;24.734;2023-02-18T10:59:59;68994.19;;;31.70;12.85
6835;BME280;3455;42.150;24.734;2023-02-18T11:02:29;69519.75;;;34.44;11.78
6835;BME280;3455;42.150;24.734;2023-02-18T11:04:59;69566.84;;;34.87;11.32
6835;BME280;3455;42.150;24.734;2023-02-18T11:07:31;69196.59;;;33.14;12.39
6835;BME280;3455;42.150;24.734;2023-02-18T11:10:07;68950.31;;;31.55;13.25
6835;BME280;3455;42.150;24.734;2023-02-18T11:12:43;68934.00;;;31.54;13.38
6835;BME280;3455;42.150;24.734;2023-02-18T11:15:20;69085.56;;;32.54;12.85
6835;BME280;3455;42.150;24.734;2023-02-18T11:17:49;69121.19;;;32.33;12.97
6835;BME280;3455;42.150;24.734;2023-02-18T11:20:25;68692.25;;;29.84;14.21
6835;BME280;3455;42.150;24.734;2023-02-18T11:22:57;68371.03;;;27.67;15.63
6835;BME280;3455;42.150;24.734;2023-02-18T11:25:27;68466.69;;;28.40;15.33
6835;BME280;3455;42.150;24.734;2023-02-18T11:28:00;68404.56;;;28.06;15.66
6835;BME280;3455;42.150;24.734;2023-02-18T11:30:31;68767.03;;;30.38;13.98
6835;BME280;3455;42.150;24.734;2023-02-18T11:33:02;69057.06;;;32.11;13.26
6835;BME280;3455;42.150;24.734;2023-02-18T11:35:31;69359.97;;;33.67;12.39
6835;BME280;3455;42.150;24.734;2023-02-18T11:37:58;69392.50;;;33.75;12.31
6835;BME280;3455;42.150;24.734;2023-02-18T11:40:30;69144.81;;;32.33;12.82
6835;BME280;3455;42.150;24.734;2023-02-18T11:43:05;68775.47;;;30.39;14.45
6835;BME280;3455;42.150;24.734;2023-02-18T11:45:34;68806.50;;;30.57;13.80
6835;BME280;3455;42.150;24.734;2023-02-18T11:48:06;68705.72;;;29.92;14.86
6835;BME280;3455;42.150;24.734;2023-02-18T11:50:33;68523.72;;;28.78;14.97
6835;BME280;3455;42.150;24.734;2023-02-18T11:53:24;68585.88;;;29.28;14.62
6835;BME280;3455;42.150;24.734;2023-02-18T11:55:55;68603.00;;;29.52;14.04
6835;BME280;3455;42.150;24.734;2023-02-18T11:58:23;68826.88;;;30.56;13.96
6835;BME280;3455;42.150;24.734;2023-02-18T12:00:52;68920.00;;;31.05;13.45
6835;BME280;3455;42.150;24.734;2023-02-18T12:03:27;69086.31;;;32.18;13.25
6835;BME280;3455;42.150;24.734;2023-02-18T12:05:57;69026.53;;;31.94;13.48
6835;BME280;3455;42.150;24.734;2023-02-18T12:08:27;69053.94;;;32.40;13.20
6835;BME280;3455;42.150;24.734;2023-02-18T12:10:59;69323.81;;;33.52;12.60
6835;BME280;3455;42.150;24.734;2023-02-18T12:13:32;69357.44;;;33.77;12.67
6835;BME280;3455;42.150;24.734;2023-02-18T12:16:09;69276.97;;;33.43;12.69
6835;BME280;3455;42.150;24.734;2023-02-18T12:18:46;69033.09;;;32.04;13.29
6835;BME280;3455;42.150;24.734;2023-02-18T12:21:41;69075.81;;;32.18;13.27
6835;BME280;3455;42.150;24.734;2023-02-18T12:24:20;68866.88;;;30.91;14.39
6835;BME280;3455;42.150;24.734;2023-02-18T12:26:58;68921.28;;;31.36;14.53
6835;BME280;3455;42.150;24.734;2023-02-18T12:29:46;69221.59;;;33.04;13.00
6835;BME280;3455;42.150;24.734;2023-02-18T12:32:26;68951.41;;;31.26;14.08
6835;BME280;3455;42.150;24.734;2023-02-18T12:35:09;68722.56;;;29.93;14.74
6835;BME280;3455;42.150;24.734;2023-02-18T12:37:57;68634.88;;;29.48;15.46
6835;BME280;3455;42.150;24.734;2023-02-18T12:40:42;68711.66;;;30.01;15.40
6835;BME280;3455;42.150;24.734;2023-02-18T12:43:19;68399.88;;;28.02;16.68
6835;BME280;3455;42.150;24.734;2023-02-18T12:46:13;68431.41;;;28.20;16.69
6835;BME280;3455;42.150;24.734;2023-02-18T12:48:54;68591.66;;;29.28;15.79
6835;BME280;3455;42.150;24.734;2023-02-18T12:51:32;68601.47;;;29.23;15.61
6835;BME280;3455;42.150;24.734;2023-02-18T12:54:18;68171.91;;;26.50;17.94
6835;BME280;3455;42.150;24.734;2023-02-18T12:57:01;68095.41;;;26.08;18.71
6835;BME280;3455;42.150;24.734;2023-02-18T12:59:45;68267.09;;;26.99;18.43
6835;BME280;3455;42.150;24.734;2023-02-18T13:02:33;68190.78;;;26.34;18.19
6835;BME280;3455;42.150;24.734;2023-02-18T13:05:11;68468.03;;;28.29;17.04
6835;BME280;3455;42.150;24.734;2023-02-18T13:07:53;68624.25;;;29.34;16.21
6835;BME280;3455;42.150;24.734;2023-02-18T13:10:41;68559.38;;;29.00;16.76
6835;BME280;3455;42.150;24.734;2023-02-18T13:13:12;68627.88;;;29.46;16.58
6835;BME280;3455;42.150;24.734;2023-02-18T13:15:45;68582.72;;;29.11;16.34
6835;BME280;3455;42.150;24.734;2023-02-18T13:18:15;68348.03;;;27.79;17.29
6835;BME280;3455;42.150;24.734;2023-02-18T13:20:48;68489.38;;;28.25;17.38
6835;BME280;3455;42.150;24.734;2023-02-18T13:23:17;68407.66;;;28.22;17.26
6835;BME280;3455;42.150;24.734;2023-02-18T13:25:48;68499.88;;;28.71;16.81
6835;BME280;3455;42.150;24.734;2023-02-18T13:28:20;68608.03;;;29.38;16.63
6835;BME280;3455;42.150;24.734;2023-02-18T13:31:00;68575.94;;;29.24;16.57
6835;BME280;3455;42.150;24.734;2023-02-18T13:33:35;68611.44;;;29.32;16.85
6835;BME280;3455;42.150;24.734;2023-02-18T13:36:09;68590.03;;;29.36;16.78